sensor_id;sensor_type;location;lat;lon;timestamp;P1;durP1;ratioP1;P2;durP2;ratioP2
81841;SDS011;71284;50.918;7.092;2023-12-20T00:01:42;5.20;;;4.75;;
81841;SDS011;71284;50.918;7.092;2023-12-20T00:04:08;5.65;;;5.15;;
81841;SDS011;71284;50.918;7.092;2023-12-20T00:06:35;5.32;;;5.00;;
81841;SDS011;71284;50.918;7.092;2023-12-20T00:09:02;5.35;;;4.95;;
81841;SDS011;71284;50.918;7.092;2023-12-20T00:11:28;8.35;;;4.40;;
81841;SDS011;71284;50.918;7.092;2023-12-20T00:13:55;5.50;;;5.00;;
81841;SDS011;71284;50.918;7.092;2023-12-20T00:16:21;6.10;;;5.50;;
81841;SDS011;71284;50.918;7.092;2023-12-20T00:18:48;5.43;;;5.05;;
81841;SDS011;71284;50.918;7.092;2023-12-20T00:21:14;5.20;;;4.80;;
81841;SDS011;71284;50.918;7.092;2023-12-20T00:23:41;9.05;;;5.32;;
81841;SDS011;71284;50.918;7.092;2023-12-20T00:26:08;5.80;;;5.30;;
81841;SDS011;71284;50.918;7.092;2023-12-20T00:28:34;20.83;;;5.45;;
81841;SDS011;71284;50.918;7.092;2023-12-20T00:31:01;6.45;;;5.78;;
81841;SDS011;71284;50.918;7.092;2023-12-20T00:33:27;6.65;;;5.97;;
81841;SDS011;71284;50.918;7.092;2023-12-20T00:35:55;6.22;;;5.50;;
81841;SDS011;71284;50.918;7.092;2023-12-20T00:38:22;6.80;;;6.07;;
81841;SDS011;71284;50.918;7.092;2023-12-20T00:40:49;6.03;;;5.50;;
81841;SDS011;71284;50.918;7.092;2023-12-20T00:43:16;5.60;;;5.10;;
81841;SDS011;71284;50.918;7.092;2023-12-20T00:45:42;7.22;;;6.05;;
81841;SDS011;71284;50.918;7.092;2023-12-20T00:48:09;6.60;;;5.82;;
81841;SDS011;71284;50.918;7.092;2023-12-20T00:50:35;6.03;;;5.25;;
81841;SDS011;71284;50.918;7.092;2023-12-20T00:53:02;4.82;;;4.22;;
81841;SDS011;71284;50.918;7.092;2023-12-20T00:55:29;3.92;;;3.65;;
81841;SDS011;71284;50.918;7.092;2023-12-20T00:57:55;5.12;;;3.75;;
81841;SDS011;71284;50.918;7.092;2023-12-20T01:00:22;5.12;;;4.62;;
81841;SDS011;71284;50.918;7.092;2023-12-20T01:02:48;4.07;;;3.78;;
81841;SDS011;71284;50.918;7.092;2023-12-20T01:05:15;6.68;;;4.05;;
81841;SDS011;71284;50.918;7.092;2023-12-20T01:07:42;4.10;;;3.72;;
81841;SDS011;71284;50.918;7.092;2023-12-20T01:10:08;3.80;;;3.55;;
81841;SDS011;71284;50.918;7.092;2023-12-20T01:12:35;12.23;;;3.58;;
81841;SDS011;71284;50.918;7.092;2023-12-20T01:15:01;3.80;;;3.33;;
81841;SDS011;71284;50.918;7.092;2023-12-20T01:17:28;4.10;;;3.90;;
81841;SDS011;71284;50.918;7.092;2023-12-20T01:19:55;3.08;;;2.97;;
81841;SDS011;71284;50.918;7.092;2023-12-20T01:22:21;5.95;;;3.37;;
81841;SDS011;71284;50.918;7.092;2023-12-20T01:24:48;5.30;;;3.67;;
81841;SDS011;71284;50.918;7.092;2023-12-20T01:27:14;3.37;;;3.12;;
81841;SDS011;71284;50.918;7.092;2023-12-20T01:29:41;4.72;;;3.05;;
81841;SDS011;71284;50.918;7.092;2023-12-20T01:32:08;1.98;;;1.75;;
81841;SDS011;71284;50.918;7.092;2023-12-20T01:34:34;3.35;;;3.15;;
81841;SDS011;71284;50.918;7.092;2023-12-20T01:37:01;2.97;;;2.55;;
81841;SDS011;71284;50.918;7.092;2023-12-20T01:39:27;10.07;;;3.00;;
81841;SDS011;71284;50.918;7.092;2023-12-20T01:41:54;2.90;;;2.70;;
81841;SDS011;71284;50.918;7.092;2023-12-20T01:44:21;4.85;;;3.97;;
81841;SDS011;71284;50.918;7.092;2023-12-20T01:46:47;2.20;;;2.05;;
81841;SDS011;71284;50.918;7.092;2023-12-20T01:49:14;4.78;;;2.85;;
81841;SDS011;71284;50.918;7.092;2023-12-20T01:51:40;3.42;;;3.22;;
81841;SDS011;71284;50.918;7.092;2023-12-20T01:54:07;8.82;;;3.58;;
81841;SDS011;71284;50.918;7.092;2023-12-20T01:56:34;3.00;;;2.80;;
81841;SDS011;71284;50.918;7.092;2023-12-20T01:59:00;9.15;;;4.18;;
81841;SDS011;71284;50.918;7.092;2023-12-20T02:01:27;9.32;;;5.78;;
81841;SDS011;71284;50.918;7.092;2023-12-20T02:03:54;6.30;;;5.50;;
81841;SDS011;71284;50.918;7.092;2023-12-20T02:06:20;14.73;;;6.50;;
81841;SDS011;71284;50.918;7.092;2023-12-20T02:08:47;17.45;;;8.07;;
81841;SDS011;71284;50.918;7.092;2023-12-20T02:11:13;11.98;;;7.47;;
81841;SDS011;71284;50.918;7.092;2023-12-20T02:13:40;12.45;;;7.97;;
81841;SDS011;71284;50.918;7.092;2023-12-20T02:16:06;17.05;;;7.62;;
81841;SDS011;71284;50.918;7.092;2023-12-20T02:18:33;17.95;;;8.02;;
81841;SDS011;71284;50.918;7.092;2023-12-20T02:21:00;11.30;;;7.00;;
81841;SDS011;71284;50.918;7.092;2023-12-20T02:23:26;8.25;;;7.40;;
81841;SDS011;71284;50.918;7.092;2023-12-20T02:25:53;9.60;;;6.90;;
81841;SDS011;71284;50.918;7.092;2023-12-20T02:28:19;18.30;;;6.82;;
81841;SDS011;71284;50.918;7.092;2023-12-20T02:30:46;9.48;;;6.53;;
81841;SDS011;71284;50.918;7.092;2023-12-20T02:33:12;16.67;;;6.70;;
81841;SDS011;71284;50.918;7.092;2023-12-20T02:35:39;11.00;;;8.45;;
81841;SDS011;71284;50.918;7.092;2023-12-20T02:38:06;11.12;;;6.80;;
81841;SDS011;71284;50.918;7.092;2023-12-20T02:40:32;12.27;;;6.47;;
81841;SDS011;71284;50.918;7.092;2023-12-20T02:42:59;10.55;;;5.47;;
81841;SDS011;71284;50.918;7.092;2023-12-20T02:45:26;14.57;;;5.15;;
81841;SDS011;71284;50.918;7.092;2023-12-20T02:47:52;7.40;;;4.15;;
81841;SDS011;71284;50.918;7.092;2023-12-20T02:50:19;10.48;;;4.53;;
81841;SDS011;71284;50.918;7.092;2023-12-20T02:52:45;8.82;;;4.15;;
81841;SDS011;71284;50.918;7.092;2023-12-20T02:55:12;11.45;;;4.53;;
81841;SDS011;71284;50.918;7.092;2023-12-20T02:57:38;3.83;;;3.47;;
81841;SDS011;71284;50.918;7.092;2023-12-20T03:00:08;8.57;;;3.22;;
81841;SDS011;71284;50.918;7.092;2023-12-20T03:02:35;12.00;;;2.87;;
81841;SDS011;71284;50.918;7.092;2023-12-20T03:05:02;8.90;;;2.65;;
81841;SDS011;71284;50.918;7.092;2023-12-20T03:07:28;10.15;;;3.00;;
81841;SDS011;71284;50.918;7.092;2023-12-20T03:09:55;8.50;;;2.20;;
81841;SDS011;71284;50.918;7.092;2023-12-20T03:12:21;15.50;;;2.45;;
81841;SDS011;71284;50.918;7.092;2023-12-20T03:14:48;6.50;;;1.92;;
81841;SDS011;71284;50.918;7.092;2023-12-20T03:17:14;9.65;;;2.10;;
81841;SDS011;71284;50.918;7.092;2023-12-20T03:19:41;4.72;;;1.50;;
81841;SDS011;71284;50.918;7.092;2023-12-20T03:22:07;7.22;;;1.17;;
81841;SDS011;71284;50.918;7.092;2023-12-20T03:24:34;12.07;;;2.05;;
81841;SDS011;71284;50.918;7.092;2023-12-20T03:27:01;10.95;;;3.37;;
81841;SDS011;71284;50.918;7.092;2023-12-20T03:29:27;5.32;;;1.87;;
81841;SDS011;71284;50.918;7.092;2023-12-20T03:31:54;9.05;;;2.25;;
81841;SDS011;71284;50.918;7.092;2023-12-20T03:34:20;10.05;;;2.22;;
81841;SDS011;71284;50.918;7.092;2023-12-20T03:36:47;9.73;;;1.80;;
81841;SDS011;71284;50.918;7.092;2023-12-20T03:39:14;8.30;;;1.80;;
81841;SDS011;71284;50.918;7.092;2023-12-20T03:41:40;6.65;;;1.98;;
81841;SDS011;71284;50.918;7.092;2023-12-20T03:44:07;3.08;;;1.05;;
81841;SDS011;71284;50.918;7.092;2023-12-20T03:46:33;10.18;;;1.75;;
81841;SDS011;71284;50.918;7.092;2023-12-20T03:49:00;5.78;;;1.65;;
81841;SDS011;71284;50.918;7.092;2023-12-20T03:51:27;17.30;;;1.50;;
81841;SDS011;71284;50.918;7.092;2023-12-20T03:53:53;9.27;;;2.00;;
81841;SDS011;71284;50.918;7.092;2023-12-20T03:56:20;6.07;;;1.10;;
81841;SDS011;71284;50.918;7.092;2023-12-20T03:58:46;8.98;;;2.65;;
81841;SDS011;71284;50.918;7.092;2023-12-20T04:01:13;12.18;;;1.40;;
81841;SDS011;71284;50.918;7.092;2023-12-20T04:03:39;6.93;;;1.75;;
81841;SDS011;71284;50.918;7.092;2023-12-20T04:06:06;10.80;;;1.75;;
81841;SDS011;71284;50.918;7.092;2023-12-20T04:08:33;5.75;;;1.60;;
81841;SDS011;71284;50.918;7.092;2023-12-20T04:10:59;3.87;;;1.30;;
81841;SDS011;71284;50.918;7.092;2023-12-20T04:13:26;8.13;;;1.50;;
81841;SDS011;71284;50.918;7.092;2023-12-20T04:15:52;7.00;;;1.77;;
81841;SDS011;71284;50.918;7.092;2023-12-20T04:18:19;10.20;;;1.50;;
81841;SDS011;71284;50.918;7.092;2023-12-20T04:20:46;3.83;;;1.42;;
81841;SDS011;71284;50.918;7.092;2023-12-20T04:23:12;16.12;;;2.00;;
81841;SDS011;71284;50.918;7.092;2023-12-20T04:25:39;4.43;;;1.65;;
81841;SDS011;71284;50.918;7.092;2023-12-20T04:28:05;15.80;;;3.05;;
81841;SDS011;71284;50.918;7.092;2023-12-20T04:30:32;3.20;;;1.60;;
81841;SDS011;71284;50.918;7.092;2023-12-20T04:32:58;7.15;;;1.65;;
81841;SDS011;71284;50.918;7.092;2023-12-20T04:35:25;5.07;;;2.00;;
81841;SDS011;71284;50.918;7.092;2023-12-20T04:37:52;13.70;;;2.83;;
81841;SDS011;71284;50.918;7.092;2023-12-20T04:40:18;6.20;;;1.40;;
81841;SDS011;71284;50.918;7.092;2023-12-20T04:42:45;14.55;;;3.22;;
81841;SDS011;71284;50.918;7.092;2023-12-20T04:45:11;12.32;;;2.00;;
81841;SDS011;71284;50.918;7.092;2023-12-20T04:47:38;4.97;;;1.55;;
81841;SDS011;71284;50.918;7.092;2023-12-20T04:50:05;16.75;;;1.75;;
81841;SDS011;71284;50.918;7.092;2023-12-20T04:52:32;14.48;;;2.55;;
81841;SDS011;71284;50.918;7.092;2023-12-20T04:54:59;10.80;;;2.70;;
81841;SDS011;71284;50.918;7.092;2023-12-20T04:57:25;5.37;;;1.85;;
81841;SDS011;71284;50.918;7.092;2023-12-20T04:59:52;11.75;;;1.80;;
81841;SDS011;71284;50.918;7.092;2023-12-20T05:02:18;14.35;;;2.25;;
81841;SDS011;71284;50.918;7.092;2023-12-20T05:04:45;15.43;;;2.45;;
81841;SDS011;71284;50.918;7.092;2023-12-20T05:07:11;10.18;;;2.08;;
81841;SDS011;71284;50.918;7.092;2023-12-20T05:09:38;21.30;;;2.50;;
81841;SDS011;71284;50.918;7.092;2023-12-20T05:12:05;9.70;;;3.50;;
81841;SDS011;71284;50.918;7.092;2023-12-20T05:14:32;10.88;;;2.58;;
81841;SDS011;71284;50.918;7.092;2023-12-20T05:16:58;18.08;;;2.50;;
81841;SDS011;71284;50.918;7.092;2023-12-20T05:19:25;14.20;;;2.35;;
81841;SDS011;71284;50.918;7.092;2023-12-20T05:21:51;11.63;;;2.65;;
81841;SDS011;71284;50.918;7.092;2023-12-20T05:24:18;10.00;;;3.42;;
81841;SDS011;71284;50.918;7.092;2023-12-20T05:26:45;21.42;;;3.62;;
81841;SDS011;71284;50.918;7.092;2023-12-20T05:29:11;7.72;;;2.72;;
81841;SDS011;71284;50.918;7.092;2023-12-20T05:31:38;7.68;;;2.80;;
81841;SDS011;71284;50.918;7.092;2023-12-20T05:34:04;8.65;;;3.25;;
81841;SDS011;71284;50.918;7.092;2023-12-20T05:36:31;13.62;;;2.70;;
81841;SDS011;71284;50.918;7.092;2023-12-20T05:38:58;12.68;;;2.60;;
81841;SDS011;71284;50.918;7.092;2023-12-20T05:41:24;10.30;;;2.67;;
81841;SDS011;71284;50.918;7.092;2023-12-20T05:43:51;3.70;;;2.62;;
81841;SDS011;71284;50.918;7.092;2023-12-20T05:46:17;13.30;;;2.30;;
81841;SDS011;71284;50.918;7.092;2023-12-20T05:48:44;13.23;;;2.97;;
81841;SDS011;71284;50.918;7.092;2023-12-20T05:51:11;23.55;;;3.55;;
81841;SDS011;71284;50.918;7.092;2023-12-20T05:53:39;15.85;;;3.15;;
81841;SDS011;71284;50.918;7.092;2023-12-20T05:56:05;13.98;;;2.08;;
81841;SDS011;71284;50.918;7.092;2023-12-20T05:58:32;6.95;;;3.55;;
81841;SDS011;71284;50.918;7.092;2023-12-20T06:00:58;18.20;;;3.55;;
81841;SDS011;71284;50.918;7.092;2023-12-20T06:03:25;17.58;;;2.83;;
81841;SDS011;71284;50.918;7.092;2023-12-20T06:05:52;23.42;;;3.20;;
81841;SDS011;71284;50.918;7.092;2023-12-20T06:08:18;21.00;;;3.37;;
81841;SDS011;71284;50.918;7.092;2023-12-20T06:10:45;22.62;;;4.72;;
81841;SDS011;71284;50.918;7.092;2023-12-20T06:13:12;13.73;;;2.58;;
81841;SDS011;71284;50.918;7.092;2023-12-20T06:15:39;16.98;;;2.62;;
81841;SDS011;71284;50.918;7.092;2023-12-20T06:18:06;4.57;;;2.03;;
81841;SDS011;71284;50.918;7.092;2023-12-20T06:20:32;9.20;;;2.10;;
81841;SDS011;71284;50.918;7.092;2023-12-20T06:22:59;4.53;;;1.95;;
81841;SDS011;71284;50.918;7.092;2023-12-20T06:25:25;9.50;;;2.10;;
81841;SDS011;71284;50.918;7.092;2023-12-20T06:27:52;7.60;;;2.58;;
81841;SDS011;71284;50.918;7.092;2023-12-20T06:30:19;7.95;;;2.37;;
81841;SDS011;71284;50.918;7.092;2023-12-20T06:32:45;17.15;;;3.42;;
81841;SDS011;71284;50.918;7.092;2023-12-20T06:35:12;5.07;;;2.00;;
81841;SDS011;71284;50.918;7.092;2023-12-20T06:37:38;9.40;;;2.37;;
81841;SDS011;71284;50.918;7.092;2023-12-20T06:40:05;15.55;;;2.80;;
81841;SDS011;71284;50.918;7.092;2023-12-20T06:42:32;8.75;;;2.42;;
81841;SDS011;71284;50.918;7.092;2023-12-20T06:44:59;8.68;;;2.78;;
81841;SDS011;71284;50.918;7.092;2023-12-20T06:47:25;3.70;;;2.72;;
81841;SDS011;71284;50.918;7.092;2023-12-20T06:49:52;13.38;;;3.22;;
81841;SDS011;71284;50.918;7.092;2023-12-20T06:52:19;16.25;;;3.25;;
81841;SDS011;71284;50.918;7.092;2023-12-20T06:54:45;20.23;;;3.08;;
81841;SDS011;71284;50.918;7.092;2023-12-20T06:57:12;24.90;;;3.80;;
81841;SDS011;71284;50.918;7.092;2023-12-20T06:59:39;17.17;;;3.17;;
81841;SDS011;71284;50.918;7.092;2023-12-20T07:02:05;16.83;;;4.57;;
81841;SDS011;71284;50.918;7.092;2023-12-20T07:04:31;9.45;;;2.87;;
81841;SDS011;71284;50.918;7.092;2023-12-20T07:06:58;11.33;;;3.20;;
81841;SDS011;71284;50.918;7.092;2023-12-20T07:09:25;24.77;;;3.25;;
81841;SDS011;71284;50.918;7.092;2023-12-20T07:11:51;10.20;;;2.25;;
81841;SDS011;71284;50.918;7.092;2023-12-20T07:14:18;15.00;;;3.03;;
81841;SDS011;71284;50.918;7.092;2023-12-20T07:16:45;12.45;;;3.08;;
81841;SDS011;71284;50.918;7.092;2023-12-20T07:19:11;11.60;;;3.37;;
81841;SDS011;71284;50.918;7.092;2023-12-20T07:21:38;15.20;;;4.12;;
81841;SDS011;71284;50.918;7.092;2023-12-20T07:24:04;7.45;;;2.22;;
81841;SDS011;71284;50.918;7.092;2023-12-20T07:26:31;9.88;;;2.95;;
81841;SDS011;71284;50.918;7.092;2023-12-20T07:28:58;8.32;;;2.37;;
81841;SDS011;71284;50.918;7.092;2023-12-20T07:31:24;12.35;;;2.35;;
81841;SDS011;71284;50.918;7.092;2023-12-20T07:33:51;6.45;;;3.55;;
81841;SDS011;71284;50.918;7.092;2023-12-20T07:36:19;21.00;;;3.62;;
81841;SDS011;71284;50.918;7.092;2023-12-20T07:38:44;8.73;;;2.90;;
81841;SDS011;71284;50.918;7.092;2023-12-20T07:41:10;15.82;;;3.37;;
81841;SDS011;71284;50.918;7.092;2023-12-20T07:43:37;9.80;;;2.25;;
81841;SDS011;71284;50.918;7.092;2023-12-20T07:46:05;6.10;;;2.12;;
81841;SDS011;71284;50.918;7.092;2023-12-20T07:48:33;6.62;;;2.40;;
81841;SDS011;71284;50.918;7.092;2023-12-20T07:50:59;12.30;;;2.95;;
81841;SDS011;71284;50.918;7.092;2023-12-20T07:53:25;13.35;;;3.12;;
81841;SDS011;71284;50.918;7.092;2023-12-20T07:55:52;12.43;;;2.67;;
81841;SDS011;71284;50.918;7.092;2023-12-20T07:58:18;7.43;;;2.03;;
81841;SDS011;71284;50.918;7.092;2023-12-20T08:00:45;16.27;;;3.33;;
81841;SDS011;71284;50.918;7.092;2023-12-20T08:03:12;14.45;;;2.78;;
81841;SDS011;71284;50.918;7.092;2023-12-20T08:05:38;11.50;;;3.22;;
81841;SDS011;71284;50.918;7.092;2023-12-20T08:08:05;9.98;;;2.47;;
81841;SDS011;71284;50.918;7.092;2023-12-20T08:10:32;16.25;;;3.40;;
81841;SDS011;71284;50.918;7.092;2023-12-20T08:12:58;15.77;;;3.62;;
81841;SDS011;71284;50.918;7.092;2023-12-20T08:15:25;9.27;;;2.92;;
81841;SDS011;71284;50.918;7.092;2023-12-20T08:17:52;18.98;;;3.28;;
81841;SDS011;71284;50.918;7.092;2023-12-20T08:20:18;8.65;;;2.67;;
81841;SDS011;71284;50.918;7.092;2023-12-20T08:22:45;17.33;;;3.15;;
81841;SDS011;71284;50.918;7.092;2023-12-20T08:25:11;13.18;;;2.85;;
81841;SDS011;71284;50.918;7.092;2023-12-20T08:27:39;19.02;;;3.78;;
81841;SDS011;71284;50.918;7.092;2023-12-20T08:30:06;11.73;;;2.60;;
81841;SDS011;71284;50.918;7.092;2023-12-20T08:32:33;14.43;;;3.75;;
81841;SDS011;71284;50.918;7.092;2023-12-20T08:34:59;12.98;;;2.50;;
81841;SDS011;71284;50.918;7.092;2023-12-20T08:37:26;28.92;;;4.05;;
81841;SDS011;71284;50.918;7.092;2023-12-20T08:39:53;17.27;;;2.80;;
81841;SDS011;71284;50.918;7.092;2023-12-20T08:42:19;6.32;;;2.95;;
81841;SDS011;71284;50.918;7.092;2023-12-20T08:44:46;8.23;;;2.60;;
81841;SDS011;71284;50.918;7.092;2023-12-20T08:47:12;6.57;;;2.47;;
81841;SDS011;71284;50.918;7.092;2023-12-20T08:49:39;8.32;;;2.85;;
81841;SDS011;71284;50.918;7.092;2023-12-20T08:52:06;12.37;;;2.35;;
81841;SDS011;71284;50.918;7.092;2023-12-20T08:54:32;17.33;;;3.25;;
81841;SDS011;71284;50.918;7.092;2023-12-20T08:56:59;16.92;;;3.40;;
81841;SDS011;71284;50.918;7.092;2023-12-20T08:59:25;10.73;;;3.00;;
81841;SDS011;71284;50.918;7.092;2023-12-20T09:01:52;8.38;;;1.77;;
81841;SDS011;71284;50.918;7.092;2023-12-20T09:04:18;8.27;;;2.90;;
81841;SDS011;71284;50.918;7.092;2023-12-20T09:06:45;8.95;;;3.40;;
81841;SDS011;71284;50.918;7.092;2023-12-20T09:09:12;5.68;;;2.40;;
81841;SDS011;71284;50.918;7.092;2023-12-20T09:11:39;22.25;;;2.70;;
81841;SDS011;71284;50.918;7.092;2023-12-20T09:14:05;16.20;;;3.00;;
81841;SDS011;71284;50.918;7.092;2023-12-20T09:16:32;9.65;;;2.83;;
81841;SDS011;71284;50.918;7.092;2023-12-20T09:18:58;15.15;;;2.25;;
81841;SDS011;71284;50.918;7.092;2023-12-20T09:21:25;14.87;;;3.15;;
81841;SDS011;71284;50.918;7.092;2023-12-20T09:23:52;16.33;;;3.35;;
81841;SDS011;71284;50.918;7.092;2023-12-20T09:26:18;24.70;;;3.55;;
81841;SDS011;71284;50.918;7.092;2023-12-20T09:28:45;16.60;;;3.78;;
81841;SDS011;71284;50.918;7.092;2023-12-20T09:31:11;16.77;;;3.10;;
81841;SDS011;71284;50.918;7.092;2023-12-20T09:33:38;15.23;;;2.72;;
81841;SDS011;71284;50.918;7.092;2023-12-20T09:36:05;7.68;;;3.05;;
81841;SDS011;71284;50.918;7.092;2023-12-20T09:38:31;6.22;;;2.40;;
81841;SDS011;71284;50.918;7.092;2023-12-20T09:40:58;6.22;;;2.22;;
81841;SDS011;71284;50.918;7.092;2023-12-20T09:43:25;3.72;;;2.42;;
81841;SDS011;71284;50.918;7.092;2023-12-20T09:45:52;7.43;;;1.73;;
81841;SDS011;71284;50.918;7.092;2023-12-20T09:48:18;7.18;;;2.10;;
81841;SDS011;71284;50.918;7.092;2023-12-20T09:50:44;6.05;;;2.00;;
81841;SDS011;71284;50.918;7.092;2023-12-20T09:53:12;3.90;;;1.35;;
81841;SDS011;71284;50.918;7.092;2023-12-20T09:55:38;8.75;;;2.50;;
81841;SDS011;71284;50.918;7.092;2023-12-20T09:58:04;3.80;;;1.80;;
81841;SDS011;71284;50.918;7.092;2023-12-20T10:00:31;16.70;;;2.45;;
81841;SDS011;71284;50.918;7.092;2023-12-20T10:02:59;11.45;;;3.50;;
81841;SDS011;71284;50.918;7.092;2023-12-20T10:05:33;13.10;;;2.58;;
81841;SDS011;71284;50.918;7.092;2023-12-20T10:08:00;3.40;;;1.50;;
81841;SDS011;71284;50.918;7.092;2023-12-20T10:10:27;14.20;;;1.52;;
81841;SDS011;71284;50.918;7.092;2023-12-20T10:15:28;8.38;;;2.28;;
81841;SDS011;71284;50.918;7.092;2023-12-20T10:17:54;18.40;;;2.37;;
81841;SDS011;71284;50.918;7.092;2023-12-20T10:20:21;4.22;;;1.87;;
81841;SDS011;71284;50.918;7.092;2023-12-20T10:22:49;12.98;;;2.67;;
81841;SDS011;71284;50.918;7.092;2023-12-20T10:25:14;2.35;;;1.30;;
81841;SDS011;71284;50.918;7.092;2023-12-20T10:27:42;11.85;;;2.90;;
81841;SDS011;71284;50.918;7.092;2023-12-20T10:30:08;9.18;;;2.12;;
81841;SDS011;71284;50.918;7.092;2023-12-20T10:32:35;5.40;;;2.83;;
81841;SDS011;71284;50.918;7.092;2023-12-20T10:35:02;12.85;;;2.25;;
81841;SDS011;71284;50.918;7.092;2023-12-20T10:37:29;14.35;;;2.67;;
81841;SDS011;71284;50.918;7.092;2023-12-20T10:39:56;3.22;;;1.80;;
81841;SDS011;71284;50.918;7.092;2023-12-20T10:42:24;16.90;;;1.85;;
81841;SDS011;71284;50.918;7.092;2023-12-20T10:44:51;11.43;;;2.25;;
81841;SDS011;71284;50.918;7.092;2023-12-20T10:47:17;2.10;;;1.52;;
81841;SDS011;71284;50.918;7.092;2023-12-20T10:49:45;18.85;;;3.15;;
81841;SDS011;71284;50.918;7.092;2023-12-20T10:52:12;17.02;;;2.05;;
81841;SDS011;71284;50.918;7.092;2023-12-20T10:54:39;18.10;;;2.42;;
81841;SDS011;71284;50.918;7.092;2023-12-20T10:57:05;7.28;;;2.00;;
81841;SDS011;71284;50.918;7.092;2023-12-20T10:59:33;7.25;;;1.62;;
81841;SDS011;71284;50.918;7.092;2023-12-20T11:01:59;10.30;;;2.40;;
81841;SDS011;71284;50.918;7.092;2023-12-20T11:04:28;6.00;;;2.00;;
81841;SDS011;71284;50.918;7.092;2023-12-20T11:06:53;13.55;;;2.72;;
81841;SDS011;71284;50.918;7.092;2023-12-20T11:09:21;19.30;;;2.50;;
81841;SDS011;71284;50.918;7.092;2023-12-20T11:12:00;18.85;;;2.28;;
81841;SDS011;71284;50.918;7.092;2023-12-20T11:14:40;14.85;;;1.92;;
81841;SDS011;71284;50.918;7.092;2023-12-20T11:17:07;7.68;;;2.42;;
81841;SDS011;71284;50.918;7.092;2023-12-20T11:19:35;11.30;;;3.03;;
81841;SDS011;71284;50.918;7.092;2023-12-20T11:22:03;5.10;;;1.83;;
81841;SDS011;71284;50.918;7.092;2023-12-20T11:24:30;4.75;;;1.50;;
81841;SDS011;71284;50.918;7.092;2023-12-20T11:26:56;25.02;;;2.45;;
81841;SDS011;71284;50.918;7.092;2023-12-20T11:29:29;7.60;;;1.35;;
81841;SDS011;71284;50.918;7.092;2023-12-20T11:31:55;11.50;;;2.22;;
81841;SDS011;71284;50.918;7.092;2023-12-20T11:34:22;16.15;;;2.33;;
81841;SDS011;71284;50.918;7.092;2023-12-20T11:36:48;6.03;;;2.10;;
81841;SDS011;71284;50.918;7.092;2023-12-20T11:39:21;18.80;;;2.78;;
81841;SDS011;71284;50.918;7.092;2023-12-20T11:41:41;10.10;;;2.15;;
81841;SDS011;71284;50.918;7.092;2023-12-20T11:44:08;9.00;;;2.30;;
81841;SDS011;71284;50.918;7.092;2023-12-20T11:46:36;5.35;;;1.45;;
81841;SDS011;71284;50.918;7.092;2023-12-20T11:49:03;9.90;;;1.75;;
81841;SDS011;71284;50.918;7.092;2023-12-20T11:51:29;7.03;;;1.25;;
81841;SDS011;71284;50.918;7.092;2023-12-20T11:53:56;11.12;;;1.52;;
81841;SDS011;71284;50.918;7.092;2023-12-20T11:56:23;9.82;;;1.40;;
81841;SDS011;71284;50.918;7.092;2023-12-20T11:58:49;4.20;;;1.10;;
81841;SDS011;71284;50.918;7.092;2023-12-20T12:01:16;9.40;;;1.50;;
81841;SDS011;71284;50.918;7.092;2023-12-20T12:03:43;6.97;;;1.30;;
81841;SDS011;71284;50.918;7.092;2023-12-20T12:06:10;8.32;;;1.40;;
81841;SDS011;71284;50.918;7.092;2023-12-20T12:08:36;9.48;;;1.65;;
81841;SDS011;71284;50.918;7.092;2023-12-20T12:11:03;14.75;;;2.05;;
81841;SDS011;71284;50.918;7.092;2023-12-20T12:13:30;14.07;;;2.65;;
81841;SDS011;71284;50.918;7.092;2023-12-20T12:15:57;5.57;;;2.15;;
81841;SDS011;71284;50.918;7.092;2023-12-20T12:18:24;8.02;;;2.50;;
81841;SDS011;71284;50.918;7.092;2023-12-20T12:20:51;10.00;;;1.70;;
81841;SDS011;71284;50.918;7.092;2023-12-20T12:23:22;6.12;;;2.03;;
81841;SDS011;71284;50.918;7.092;2023-12-20T12:25:43;13.77;;;1.60;;
81841;SDS011;71284;50.918;7.092;2023-12-20T12:28:10;5.87;;;1.23;;
81841;SDS011;71284;50.918;7.092;2023-12-20T12:30:37;3.45;;;1.40;;
81841;SDS011;71284;50.918;7.092;2023-12-20T12:33:03;10.68;;;2.33;;
81841;SDS011;71284;50.918;7.092;2023-12-20T12:35:30;11.63;;;2.42;;
81841;SDS011;71284;50.918;7.092;2023-12-20T12:37:58;14.40;;;2.28;;
81841;SDS011;71284;50.918;7.092;2023-12-20T12:40:23;8.75;;;2.35;;
81841;SDS011;71284;50.918;7.092;2023-12-20T12:42:51;7.70;;;1.65;;
81841;SDS011;71284;50.918;7.092;2023-12-20T12:45:17;6.43;;;1.35;;
81841;SDS011;71284;50.918;7.092;2023-12-20T12:47:44;4.53;;;1.60;;
81841;SDS011;71284;50.918;7.092;2023-12-20T12:50:10;14.48;;;2.42;;
81841;SDS011;71284;50.918;7.092;2023-12-20T12:52:37;5.55;;;2.12;;
81841;SDS011;71284;50.918;7.092;2023-12-20T12:55:04;14.32;;;2.20;;
81841;SDS011;71284;50.918;7.092;2023-12-20T12:57:31;10.13;;;1.62;;
81841;SDS011;71284;50.918;7.092;2023-12-20T12:59:58;3.83;;;2.10;;
81841;SDS011;71284;50.918;7.092;2023-12-20T13:02:25;3.87;;;1.83;;
81841;SDS011;71284;50.918;7.092;2023-12-20T13:04:52;5.05;;;1.52;;
81841;SDS011;71284;50.918;7.092;2023-12-20T13:07:18;12.43;;;2.28;;
81841;SDS011;71284;50.918;7.092;2023-12-20T13:09:45;6.12;;;1.80;;
81841;SDS011;71284;50.918;7.092;2023-12-20T13:12:12;10.35;;;3.17;;
81841;SDS011;71284;50.918;7.092;2023-12-20T13:14:39;7.55;;;1.95;;
81841;SDS011;71284;50.918;7.092;2023-12-20T13:17:05;8.68;;;2.28;;
81841;SDS011;71284;50.918;7.092;2023-12-20T13:19:32;7.85;;;3.00;;
81841;SDS011;71284;50.918;7.092;2023-12-20T13:21:58;9.27;;;1.90;;
81841;SDS011;71284;50.918;7.092;2023-12-20T13:24:25;4.22;;;2.00;;
81841;SDS011;71284;50.918;7.092;2023-12-20T13:26:52;6.60;;;1.83;;
81841;SDS011;71284;50.918;7.092;2023-12-20T13:29:18;7.10;;;1.62;;
81841;SDS011;71284;50.918;7.092;2023-12-20T13:31:46;10.55;;;2.53;;
81841;SDS011;71284;50.918;7.092;2023-12-20T13:34:13;6.95;;;2.22;;
81841;SDS011;71284;50.918;7.092;2023-12-20T13:36:40;9.30;;;3.25;;
81841;SDS011;71284;50.918;7.092;2023-12-20T13:39:07;8.27;;;2.30;;
81841;SDS011;71284;50.918;7.092;2023-12-20T13:41:34;10.40;;;2.30;;
81841;SDS011;71284;50.918;7.092;2023-12-20T13:44:00;9.02;;;2.47;;
81841;SDS011;71284;50.918;7.092;2023-12-20T13:46:27;12.05;;;2.20;;
81841;SDS011;71284;50.918;7.092;2023-12-20T13:48:54;3.47;;;2.60;;
81841;SDS011;71284;50.918;7.092;2023-12-20T13:51:20;16.60;;;2.75;;
81841;SDS011;71284;50.918;7.092;2023-12-20T13:53:47;10.10;;;3.20;;
81841;SDS011;71284;50.918;7.092;2023-12-20T13:56:14;5.80;;;2.20;;
81841;SDS011;71284;50.918;7.092;2023-12-20T13:58:40;16.05;;;2.50;;
81841;SDS011;71284;50.918;7.092;2023-12-20T14:01:09;2.12;;;1.60;;
81841;SDS011;71284;50.918;7.092;2023-12-20T14:03:34;12.20;;;2.75;;
81841;SDS011;71284;50.918;7.092;2023-12-20T14:06:01;13.40;;;2.60;;
81841;SDS011;71284;50.918;7.092;2023-12-20T14:08:28;9.95;;;2.67;;
81841;SDS011;71284;50.918;7.092;2023-12-20T14:10:55;6.80;;;2.53;;
81841;SDS011;71284;50.918;7.092;2023-12-20T14:13:21;11.65;;;3.08;;
81841;SDS011;71284;50.918;7.092;2023-12-20T14:15:48;13.48;;;3.10;;
81841;SDS011;71284;50.918;7.092;2023-12-20T14:18:15;13.52;;;2.80;;
81841;SDS011;71284;50.918;7.092;2023-12-20T14:20:41;8.23;;;2.33;;
81841;SDS011;71284;50.918;7.092;2023-12-20T14:23:08;9.63;;;1.83;;
81841;SDS011;71284;50.918;7.092;2023-12-20T14:25:35;5.37;;;2.10;;
81841;SDS011;71284;50.918;7.092;2023-12-20T14:28:03;25.80;;;3.95;;
81841;SDS011;71284;50.918;7.092;2023-12-20T14:30:30;6.10;;;1.73;;
81841;SDS011;71284;50.918;7.092;2023-12-20T14:32:57;7.37;;;1.80;;
81841;SDS011;71284;50.918;7.092;2023-12-20T14:35:23;3.53;;;2.03;;
81841;SDS011;71284;50.918;7.092;2023-12-20T14:37:50;11.75;;;2.00;;
81841;SDS011;71284;50.918;7.092;2023-12-20T14:40:16;9.80;;;1.90;;